createdAt,value
2022-11-05T00:01:10.572Z,93.95
2022-11-05T00:08:30.358Z,93.85
2022-11-05T00:15:50.817Z,94.54
2022-11-05T00:23:20.917Z,93.60
2022-11-05T00:30:23.741Z,93.80
2022-11-05T00:37:27.566Z,93.83
2022-11-05T00:44:47.916Z,94.29
2022-11-05T00:52:09.475Z,94.24
2022-11-05T00:59:11.039Z,94.55
2022-11-05T01:06:14.103Z,94.45
2022-11-05T01:13:20.692Z,94.66
2022-11-05T01:20:22.452Z,94.58
2022-11-05T01:27:24.031Z,94.54
2022-11-05T01:34:25.617Z,94.21
2022-11-05T01:41:27.201Z,93.69
2022-11-05T01:48:32.176Z,93.71
2022-11-05T01:55:35.469Z,93.88
2022-11-05T02:02:37.121Z,93.63
2022-11-05T02:09:56.925Z,93.72
2022-11-05T02:17:03.001Z,93.71
2022-11-05T02:24:15.035Z,93.52
2022-11-05T02:31:47.968Z,93.54
2022-11-05T02:39:23.402Z,93.74
2022-11-05T02:46:36.630Z,93.73
2022-11-05T02:54:00.118Z,93.60
2022-11-05T03:01:06.646Z,92.96
2022-11-05T03:08:13.211Z,92.57
2022-11-05T03:15:39.324Z,92.55
2022-11-05T03:23:05.330Z,92.92
2022-11-05T03:30:08.957Z,92.25
2022-11-05T03:37:10.501Z,91.97
2022-11-05T03:44:12.831Z,92.11
2022-11-05T03:51:17.590Z,92.04
2022-11-05T03:58:20.386Z,91.99
2022-11-05T04:05:21.958Z,92.04
2022-11-05T04:12:41.883Z,91.86
2022-11-05T04:20:02.342Z,91.47
2022-11-05T04:27:04.648Z,91.84
2022-11-05T04:34:06.232Z,92.01
2022-11-05T04:41:12.966Z,91.78
2022-11-05T04:48:14.581Z,91.53
2022-11-05T04:55:16.263Z,91.88
2022-11-05T05:02:17.924Z,91.98
2022-11-05T05:09:19.521Z,91.32
2022-11-05T05:16:25.353Z,91.56
2022-11-05T05:23:26.897Z,91.42
2022-11-05T05:30:28.446Z,91.10
2022-11-05T05:37:30.007Z,91.04
2022-11-05T05:44:31.576Z,91.01
2022-11-05T05:51:33.129Z,91.31
2022-11-05T05:58:39.038Z,91.03
2022-11-05T06:05:40.669Z,91.28
2022-11-05T06:12:42.237Z,90.81
2022-11-05T06:19:43.941Z,90.59
2022-11-05T06:26:45.506Z,90.32
2022-11-05T06:33:47.308Z,90.37
2022-11-05T06:40:48.848Z,90.59
2022-11-05T06:47:55.908Z,90.35
2022-11-05T06:54:57.464Z,90.32
2022-11-05T07:01:59.046Z,90.48
2022-11-05T07:09:00.660Z,90.26
2022-11-05T07:16:02.211Z,90.03
2022-11-05T07:23:06.561Z,90.02
2022-11-05T07:30:08.965Z,90.05
2022-11-05T07:37:10.520Z,89.89
2022-11-05T07:44:12.464Z,90.31
2022-11-05T07:51:14.060Z,90.40
2022-11-05T07:58:15.701Z,90.42
2022-11-05T08:05:17.363Z,90.25
2022-11-05T08:12:18.992Z,90.09
2022-11-05T08:19:20.627Z,89.38
2022-11-05T08:26:22.179Z,88.63
2022-11-05T08:33:24.185Z,88.20
2022-11-05T08:40:26.381Z,87.34
2022-11-05T08:47:27.940Z,86.88
2022-11-05T08:54:29.554Z,85.92
2022-11-05T09:01:32.283Z,85.17
2022-11-05T09:08:33.954Z,84.40
2022-11-05T09:15:35.715Z,83.48
2022-11-05T09:22:42.175Z,84.02
2022-11-05T09:29:44.940Z,83.69
2022-11-05T09:36:46.483Z,83.44
2022-11-05T09:43:55.862Z,83.22
2022-11-05T09:50:58.189Z,82.76
2022-11-05T09:58:01.560Z,82.02
2022-11-05T10:05:09.736Z,80.32
2022-11-05T10:12:14.883Z,79.65
2022-11-05T10:19:23.830Z,78.38
2022-11-05T10:26:27.092Z,75.90
2022-11-05T10:33:35.258Z,75.37
2022-11-05T10:40:49.817Z,74.39
2022-11-05T10:48:15.709Z,73.03
2022-11-05T10:55:35.192Z,70.37
2022-11-05T11:02:36.828Z,68.98
2022-11-05T11:09:38.425Z,68.84
2022-11-05T11:16:44.579Z,68.93
2022-11-05T11:24:06.875Z,68.38
2022-11-05T11:31:16.350Z,67.00
2022-11-05T11:38:17.993Z,66.62
2022-11-05T11:45:33.302Z,65.86
2022-11-05T11:52:36.465Z,64.69
2022-11-05T12:00:07.277Z,64.30
2022-11-05T12:07:30.092Z,63.11
2022-11-05T12:14:46.051Z,61.59
2022-11-05T12:22:06.171Z,60.65
2022-11-05T12:29:35.777Z,59.96
2022-11-05T12:36:53.853Z,59.94
2022-11-05T12:44:18.802Z,60.43
2022-11-05T12:51:27.457Z,59.96
2022-11-05T12:58:31.598Z,60.78
2022-11-05T13:05:36.207Z,60.53
2022-11-05T13:12:39.066Z,59.90
2022-11-05T13:19:48.774Z,59.83
2022-11-05T13:27:04.630Z,59.95
2022-11-05T13:34:11.129Z,60.61
2022-11-05T13:41:30.847Z,60.35
2022-11-05T13:48:46.458Z,60.10
2022-11-05T13:56:09.919Z,59.83
2022-11-05T14:03:19.997Z,59.97
2022-11-05T14:10:37.726Z,60.00
2022-11-05T14:18:02.170Z,60.40
2022-11-05T14:25:30.097Z,60.06
2022-11-05T14:32:45.619Z,60.56
2022-11-05T14:39:47.847Z,61.10
2022-11-05T14:46:50.723Z,60.74
2022-11-05T14:54:04.057Z,60.91
2022-11-05T15:01:07.583Z,60.05
2022-11-05T15:08:32.442Z,61.01
2022-11-05T15:15:44.514Z,59.91
2022-11-05T15:22:51.746Z,60.19
2022-11-05T15:29:53.473Z,60.48
2022-11-05T15:36:56.949Z,60.65
2022-11-05T15:43:58.518Z,61.42
2022-11-05T15:51:00.087Z,61.59
2022-11-05T15:58:06.293Z,61.80
2022-11-05T16:05:11.538Z,62.16
2022-11-05T16:12:19.380Z,63.19
2022-11-05T16:19:47.202Z,63.59
2022-11-05T16:27:02.904Z,63.83
2022-11-05T16:34:04.946Z,64.86
2022-11-05T16:41:06.562Z,65.28
2022-11-05T16:48:12.371Z,65.42
2022-11-05T16:55:14.517Z,66.25
2022-11-05T17:02:16.305Z,66.70
2022-11-05T17:09:18.081Z,67.05
2022-11-05T17:16:19.662Z,67.64
2022-11-05T17:23:22.552Z,67.93
2022-11-05T17:30:24.488Z,67.87
2022-11-05T17:37:26.059Z,67.88
2022-11-05T17:44:27.629Z,68.11
2022-11-05T17:51:29.208Z,68.20
2022-11-05T17:58:30.831Z,68.16
2022-11-05T18:05:33.812Z,68.45
2022-11-05T18:12:35.645Z,68.78
2022-11-05T18:19:40.174Z,68.90
2022-11-05T18:26:42.229Z,69.33
2022-11-05T18:33:43.825Z,69.26
2022-11-05T18:40:45.410Z,69.44
2022-11-05T18:47:46.987Z,69.54
2022-11-05T18:54:48.570Z,69.73
2022-11-05T19:01:50.355Z,69.94
2022-11-05T19:08:52.056Z,70.75
2022-11-05T19:15:53.656Z,71.21
2022-11-05T19:22:55.266Z,71.64
2022-11-05T19:29:56.929Z,72.23
2022-11-05T19:36:58.534Z,71.98
2022-11-05T19:44:01.691Z,73.01
2022-11-05T19:51:07.958Z,73.23
2022-11-05T19:58:09.852Z,73.51
2022-11-05T20:05:12.684Z,73.60
2022-11-05T20:12:14.381Z,73.82
2022-11-05T20:19:17.547Z,73.69
2022-11-05T20:26:19.126Z,74.01
2022-11-05T20:33:20.822Z,73.60
2022-11-05T20:40:22.389Z,74.09
2022-11-05T20:47:23.959Z,74.51
2022-11-05T20:54:25.622Z,74.89
2022-11-05T21:01:29.238Z,74.66
2022-11-05T21:08:31.642Z,74.78
2022-11-05T21:15:33.164Z,74.55
2022-11-05T21:22:34.723Z,74.65
2022-11-05T21:29:37.088Z,74.83
2022-11-05T21:36:39.440Z,75.24
2022-11-05T21:43:42.283Z,75.31
2022-11-05T21:51:02.457Z,75.56
2022-11-05T21:58:32.938Z,75.63
2022-11-05T22:05:34.577Z,76.04
2022-11-05T22:12:36.132Z,75.94
2022-11-05T22:19:37.732Z,76.46
2022-11-05T22:26:39.472Z,76.12
2022-11-05T22:33:41.138Z,76.34
2022-11-05T22:40:42.723Z,76.53
2022-11-05T22:47:44.333Z,77.14
2022-11-05T22:54:47.621Z,77.00
2022-11-05T23:01:49.397Z,77.17
2022-11-05T23:09:09.585Z,77.51
2022-11-05T23:16:29.970Z,77.70
2022-11-05T23:23:50.414Z,77.96
2022-11-05T23:31:10.558Z,78.41
2022-11-05T23:38:30.978Z,77.89
2022-11-05T23:45:47.852Z,77.49
2022-11-05T23:52:49.433Z,77.87
2022-11-05T23:59:50.974Z,78.16
